Terminal Aerodrome Forecast
Issued by NWS

Home | Current Version | Previous Version | Text Only | Print | Product List | Glossary On
Versions: 1 2 3 4 5 6 7 8 9 10 11 12 13
000
FTAK31 PANC 211740
TAFADL
TAF
PADL 211740Z 2118/2218 VRB05KT P6SM BKN120 OVC200
     FM212200 VRB05KT P6SM SCT050 OVC100
     FM220800 VRB03KT 6SM BR FEW002 SCT100
     FM221200 VRB05KT P6SM VCSH SCT015 BKN025 OVC050=

USA.gov is the U.S. government's official web portal to all federal, state and local government web resources and services.